sensor_id;sensor_type;location;lat;lon;timestamp;pressure;altitude;pressure_sealevel;temperature;humidity
13934;BME280;7039;52.168;9.866;2023-07-08T00:01:17;101035.53;;;19.23;69.66
13934;BME280;7039;52.168;9.866;2023-07-08T00:04:01;101032.44;;;19.40;68.26
13934;BME280;7039;52.168;9.866;2023-07-08T00:06:30;101035.69;;;19.55;68.55
13934;BME280;7039;52.168;9.866;2023-07-08T00:08:56;101037.00;;;19.61;67.83
13934;BME280;7039;52.168;9.866;2023-07-08T00:11:23;101039.16;;;19.67;67.99
13934;BME280;7039;52.168;9.866;2023-07-08T00:13:50;101032.53;;;19.61;67.92
13934;BME280;7039;52.168;9.866;2023-07-08T00:16:18;101027.50;;;19.36;68.74
13934;BME280;7039;52.168;9.866;2023-07-08T00:18:44;101026.66;;;19.24;68.96
13934;BME280;7039;52.168;9.866;2023-07-08T00:21:12;101027.19;;;18.94;69.74
13934;BME280;7039;52.168;9.866;2023-07-08T00:23:44;101024.56;;;18.94;70.33
13934;BME280;7039;52.168;9.866;2023-07-08T00:26:22;101030.94;;;19.03;69.95
13934;BME280;7039;52.168;9.866;2023-07-08T00:28:50;101029.88;;;19.05;69.66
13934;BME280;7039;52.168;9.866;2023-07-08T00:31:17;101030.94;;;19.03;69.97
13934;BME280;7039;52.168;9.866;2023-07-08T00:33:49;101025.91;;;18.99;69.67
13934;BME280;7039;52.168;9.866;2023-07-08T00:36:16;101024.72;;;19.04;69.83
13934;BME280;7039;52.168;9.866;2023-07-08T00:38:43;101024.00;;;19.02;69.71
13934;BME280;7039;52.168;9.866;2023-07-08T00:41:12;101026.16;;;19.08;69.20
13934;BME280;7039;52.168;9.866;2023-07-08T00:43:43;101019.16;;;18.95;69.30
13934;BME280;7039;52.168;9.866;2023-07-08T00:49:08;101023.28;;;18.75;70.08
13934;BME280;7039;52.168;9.866;2023-07-08T00:51:39;101010.22;;;17.02;76.24
13934;BME280;7039;52.168;9.866;2023-07-08T00:54:10;101016.00;;;17.33;75.55
13934;BME280;7039;52.168;9.866;2023-07-08T00:56:42;101021.31;;;17.70;74.51
13934;BME280;7039;52.168;9.866;2023-07-08T00:59:22;101016.78;;;17.72;74.45
13934;BME280;7039;52.168;9.866;2023-07-08T01:02:27;101025.47;;;17.98;73.47
13934;BME280;7039;52.168;9.866;2023-07-08T01:04:56;101030.00;;;18.09;72.67
13934;BME280;7039;52.168;9.866;2023-07-08T01:07:25;101018.16;;;18.14;72.47
13934;BME280;7039;52.168;9.866;2023-07-08T01:09:55;101023.69;;;18.23;72.45
13934;BME280;7039;52.168;9.866;2023-07-08T01:12:26;101020.09;;;18.00;72.90
13934;BME280;7039;52.168;9.866;2023-07-08T01:14:54;101013.78;;;17.89;73.32
13934;BME280;7039;52.168;9.866;2023-07-08T01:34:23;101002.44;;;17.76;73.70
13934;BME280;7039;52.168;9.866;2023-07-08T01:36:52;101002.72;;;17.84;73.38
13934;BME280;7039;52.168;9.866;2023-07-08T01:39:22;100999.16;;;17.72;73.58
13934;BME280;7039;52.168;9.866;2023-07-08T01:48:59;101001.78;;;17.85;73.38
13934;BME280;7039;52.168;9.866;2023-07-08T01:51:29;100993.59;;;18.01;72.66
13934;BME280;7039;52.168;9.866;2023-07-08T01:53:55;100997.31;;;17.99;72.54
13934;BME280;7039;52.168;9.866;2023-07-08T01:56:22;100992.75;;;18.01;72.54
13934;BME280;7039;52.168;9.866;2023-07-08T01:58:48;100990.34;;;17.98;71.92
13934;BME280;7039;52.168;9.866;2023-07-08T02:01:14;100989.91;;;18.04;72.35
13934;BME280;7039;52.168;9.866;2023-07-08T02:03:41;100990.72;;;18.04;72.25
13934;BME280;7039;52.168;9.866;2023-07-08T02:06:07;100972.78;;;17.85;73.26
13934;BME280;7039;52.168;9.866;2023-07-08T02:11:51;100983.25;;;17.98;72.91
13934;BME280;7039;52.168;9.866;2023-07-08T02:14:18;100977.81;;;17.75;73.59
13934;BME280;7039;52.168;9.866;2023-07-08T02:16:44;100968.97;;;17.77;73.43
13934;BME280;7039;52.168;9.866;2023-07-08T02:19:11;100973.84;;;17.83;73.06
13934;BME280;7039;52.168;9.866;2023-07-08T02:21:38;100974.78;;;17.82;72.48
13934;BME280;7039;52.168;9.866;2023-07-08T02:24:05;100974.66;;;17.83;72.99
13934;BME280;7039;52.168;9.866;2023-07-08T02:26:31;100975.34;;;17.98;72.38
13934;BME280;7039;52.168;9.866;2023-07-08T02:29:00;100983.88;;;18.02;72.41
13934;BME280;7039;52.168;9.866;2023-07-08T02:31:26;100979.19;;;17.94;72.38
13934;BME280;7039;52.168;9.866;2023-07-08T02:33:53;100975.47;;;17.97;72.53
13934;BME280;7039;52.168;9.866;2023-07-08T02:36:20;100976.25;;;17.86;72.81
13934;BME280;7039;52.168;9.866;2023-07-08T02:38:47;100980.13;;;17.80;73.01
13934;BME280;7039;52.168;9.866;2023-07-08T02:41:14;100972.59;;;17.63;73.66
13934;BME280;7039;52.168;9.866;2023-07-08T02:43:40;100965.78;;;17.35;74.32
13934;BME280;7039;52.168;9.866;2023-07-08T02:52:51;100971.94;;;17.22;74.29
13934;BME280;7039;52.168;9.866;2023-07-08T02:55:17;100972.13;;;17.32;73.90
13934;BME280;7039;52.168;9.866;2023-07-08T02:57:44;100962.53;;;17.31;73.59
13934;BME280;7039;52.168;9.866;2023-07-08T03:00:12;100960.72;;;17.44;73.32
13934;BME280;7039;52.168;9.866;2023-07-08T03:02:38;100962.22;;;17.36;73.52
13934;BME280;7039;52.168;9.866;2023-07-08T03:05:07;100962.22;;;17.36;73.32
13934;BME280;7039;52.168;9.866;2023-07-08T03:07:34;100954.19;;;17.37;73.43
13934;BME280;7039;52.168;9.866;2023-07-08T03:10:00;100965.69;;;17.36;73.34
13934;BME280;7039;52.168;9.866;2023-07-08T03:12:27;100952.78;;;16.95;74.58
13934;BME280;7039;52.168;9.866;2023-07-08T03:21:19;100971.06;;;16.70;75.45
13934;BME280;7039;52.168;9.866;2023-07-08T03:23:50;100974.03;;;16.79;74.82
13934;BME280;7039;52.168;9.866;2023-07-08T03:26:35;100965.31;;;16.91;74.60
13934;BME280;7039;52.168;9.866;2023-07-08T03:29:02;100966.16;;;17.04;74.11
13934;BME280;7039;52.168;9.866;2023-07-08T03:31:28;100972.06;;;16.95;74.05
13934;BME280;7039;52.168;9.866;2023-07-08T03:33:55;100973.00;;;17.20;73.23
13934;BME280;7039;52.168;9.866;2023-07-08T03:36:23;100970.88;;;17.25;72.79
13934;BME280;7039;52.168;9.866;2023-07-08T03:38:50;100974.88;;;17.30;73.18
13934;BME280;7039;52.168;9.866;2023-07-08T03:41:17;100970.38;;;17.20;73.30
13934;BME280;7039;52.168;9.866;2023-07-08T03:50:17;100982.88;;;16.78;74.75
13934;BME280;7039;52.168;9.866;2023-07-08T03:52:46;100984.81;;;16.88;74.17
13934;BME280;7039;52.168;9.866;2023-07-08T03:55:13;100985.47;;;16.92;74.00
13934;BME280;7039;52.168;9.866;2023-07-08T03:57:40;100986.69;;;17.12;73.21
13934;BME280;7039;52.168;9.866;2023-07-08T04:00:08;100984.38;;;17.20;73.05
13934;BME280;7039;52.168;9.866;2023-07-08T04:02:37;100979.94;;;17.33;73.03
13934;BME280;7039;52.168;9.866;2023-07-08T04:05:04;100980.75;;;17.47;72.65
13934;BME280;7039;52.168;9.866;2023-07-08T04:07:31;100975.56;;;17.58;72.44
13934;BME280;7039;52.168;9.866;2023-07-08T04:09:59;100978.53;;;17.41;73.32
13934;BME280;7039;52.168;9.866;2023-07-08T04:19:02;100987.34;;;17.03;74.67
13934;BME280;7039;52.168;9.866;2023-07-08T04:21:38;100974.06;;;17.17;73.79
13934;BME280;7039;52.168;9.866;2023-07-08T04:24:05;100985.31;;;17.32;73.51
13934;BME280;7039;52.168;9.866;2023-07-08T04:26:33;100984.56;;;17.43;73.52
13934;BME280;7039;52.168;9.866;2023-07-08T04:35:36;100993.38;;;17.54;73.27
13934;BME280;7039;52.168;9.866;2023-07-08T04:38:04;100990.53;;;17.58;73.17
13934;BME280;7039;52.168;9.866;2023-07-08T04:40:35;100983.75;;;17.66;73.02
13934;BME280;7039;52.168;9.866;2023-07-08T04:43:03;100986.47;;;17.78;72.38
13934;BME280;7039;52.168;9.866;2023-07-08T04:45:31;100983.97;;;17.76;72.34
13934;BME280;7039;52.168;9.866;2023-07-08T04:51:36;100992.47;;;17.80;72.50
13934;BME280;7039;52.168;9.866;2023-07-08T04:57:20;100991.97;;;17.87;72.41
13934;BME280;7039;52.168;9.866;2023-07-08T05:02:52;101009.22;;;18.04;72.64
13934;BME280;7039;52.168;9.866;2023-07-08T05:05:19;101014.66;;;18.14;73.04
13934;BME280;7039;52.168;9.866;2023-07-08T05:07:45;101013.25;;;18.21;73.11
13934;BME280;7039;52.168;9.866;2023-07-08T05:10:13;101008.59;;;18.25;73.13
13934;BME280;7039;52.168;9.866;2023-07-08T05:12:50;101014.72;;;18.25;73.44
13934;BME280;7039;52.168;9.866;2023-07-08T05:15:18;101019.59;;;18.43;73.32
13934;BME280;7039;52.168;9.866;2023-07-08T05:17:45;101013.03;;;18.60;72.27
13934;BME280;7039;52.168;9.866;2023-07-08T05:20:13;101011.00;;;18.63;72.54
13934;BME280;7039;52.168;9.866;2023-07-08T05:22:52;101012.44;;;18.56;72.82
13934;BME280;7039;52.168;9.866;2023-07-08T05:25:41;101005.44;;;18.55;73.21
13934;BME280;7039;52.168;9.866;2023-07-08T05:28:07;101006.69;;;18.62;73.15
13934;BME280;7039;52.168;9.866;2023-07-08T05:30:36;101014.41;;;18.76;71.91
13934;BME280;7039;52.168;9.866;2023-07-08T05:33:02;101003.56;;;18.92;71.03
13934;BME280;7039;52.168;9.866;2023-07-08T05:35:29;101001.38;;;18.86;71.17
13934;BME280;7039;52.168;9.866;2023-07-08T05:37:55;100996.09;;;18.86;72.38
13934;BME280;7039;52.168;9.866;2023-07-08T05:40:22;101001.72;;;18.82;73.80
13934;BME280;7039;52.168;9.866;2023-07-08T05:42:48;100993.56;;;19.07;73.45
13934;BME280;7039;52.168;9.866;2023-07-08T05:45:15;100993.44;;;18.97;73.66
13934;BME280;7039;52.168;9.866;2023-07-08T05:47:43;101005.38;;;19.14;72.89
13934;BME280;7039;52.168;9.866;2023-07-08T05:50:09;100988.91;;;19.11;72.17
13934;BME280;7039;52.168;9.866;2023-07-08T05:52:36;100995.03;;;19.34;70.67
13934;BME280;7039;52.168;9.866;2023-07-08T05:55:04;100998.50;;;19.34;73.30
13934;BME280;7039;52.168;9.866;2023-07-08T05:57:31;101005.13;;;19.51;71.68
13934;BME280;7039;52.168;9.866;2023-07-08T05:59:57;101012.09;;;19.64;71.06
13934;BME280;7039;52.168;9.866;2023-07-08T06:02:24;101003.91;;;19.78;70.66
13934;BME280;7039;52.168;9.866;2023-07-08T06:04:54;101004.50;;;19.93;71.05
13934;BME280;7039;52.168;9.866;2023-07-08T06:07:20;100992.47;;;19.77;71.58
13934;BME280;7039;52.168;9.866;2023-07-08T06:09:47;101006.03;;;19.95;71.17
13934;BME280;7039;52.168;9.866;2023-07-08T06:12:13;101002.38;;;20.19;70.52
13934;BME280;7039;52.168;9.866;2023-07-08T06:14:40;100989.00;;;20.20;69.94
13934;BME280;7039;52.168;9.866;2023-07-08T06:17:06;100987.56;;;20.16;71.70
13934;BME280;7039;52.168;9.866;2023-07-08T06:19:33;100992.94;;;20.26;70.22
13934;BME280;7039;52.168;9.866;2023-07-08T06:22:01;100994.00;;;20.35;69.71
13934;BME280;7039;52.168;9.866;2023-07-08T06:24:27;100983.47;;;20.44;69.18
13934;BME280;7039;52.168;9.866;2023-07-08T06:26:54;100985.88;;;20.69;69.29
13934;BME280;7039;52.168;9.866;2023-07-08T06:29:20;100981.13;;;20.62;70.45
13934;BME280;7039;52.168;9.866;2023-07-08T06:31:47;100984.09;;;20.69;71.03
13934;BME280;7039;52.168;9.866;2023-07-08T06:34:13;100998.31;;;20.68;70.77
13934;BME280;7039;52.168;9.866;2023-07-08T06:36:40;100993.91;;;20.78;70.10
13934;BME280;7039;52.168;9.866;2023-07-08T06:39:07;100999.31;;;20.98;69.10
13934;BME280;7039;52.168;9.866;2023-07-08T06:41:36;101001.56;;;21.02;68.87
13934;BME280;7039;52.168;9.866;2023-07-08T06:44:03;101001.88;;;21.09;69.29
13934;BME280;7039;52.168;9.866;2023-07-08T06:46:29;101002.44;;;21.03;70.93
13934;BME280;7039;52.168;9.866;2023-07-08T06:48:56;101004.03;;;21.15;69.54
13934;BME280;7039;52.168;9.866;2023-07-08T06:51:22;100998.03;;;21.23;70.13
13934;BME280;7039;52.168;9.866;2023-07-08T06:53:49;100995.22;;;21.15;69.24
13934;BME280;7039;52.168;9.866;2023-07-08T06:56:17;100993.94;;;21.09;69.58
13934;BME280;7039;52.168;9.866;2023-07-08T06:58:43;100990.53;;;21.28;68.77
13934;BME280;7039;52.168;9.866;2023-07-08T07:01:10;100993.06;;;21.60;67.79
13934;BME280;7039;52.168;9.866;2023-07-08T07:03:36;100990.13;;;21.73;67.71
13934;BME280;7039;52.168;9.866;2023-07-08T07:06:03;100990.88;;;22.04;66.71
13934;BME280;7039;52.168;9.866;2023-07-08T07:08:29;100983.75;;;22.15;65.92
13934;BME280;7039;52.168;9.866;2023-07-08T07:10:56;100991.34;;;22.29;66.53
13934;BME280;7039;52.168;9.866;2023-07-08T07:13:23;100988.66;;;22.39;66.33
13934;BME280;7039;52.168;9.866;2023-07-08T07:15:50;100983.22;;;22.50;66.46
13934;BME280;7039;52.168;9.866;2023-07-08T07:18:16;100967.66;;;22.06;66.92
13934;BME280;7039;52.168;9.866;2023-07-08T07:20:49;100985.47;;;22.35;66.54
13934;BME280;7039;52.168;9.866;2023-07-08T07:23:16;100982.09;;;22.62;66.53
13934;BME280;7039;52.168;9.866;2023-07-08T07:25:42;100986.13;;;22.66;66.98
13934;BME280;7039;52.168;9.866;2023-07-08T07:28:09;100978.72;;;22.50;67.47
13934;BME280;7039;52.168;9.866;2023-07-08T07:30:37;100979.03;;;22.38;66.74
13934;BME280;7039;52.168;9.866;2023-07-08T07:33:03;100974.97;;;22.53;66.71
13934;BME280;7039;52.168;9.866;2023-07-08T07:35:30;100970.78;;;22.21;66.90
13934;BME280;7039;52.168;9.866;2023-07-08T07:37:56;100977.31;;;22.76;66.46
13934;BME280;7039;52.168;9.866;2023-07-08T07:40:23;100990.16;;;23.27;65.42
13934;BME280;7039;52.168;9.866;2023-07-08T07:42:49;100987.75;;;23.62;64.31
13934;BME280;7039;52.168;9.866;2023-07-08T07:45:16;100979.72;;;23.71;62.11
13934;BME280;7039;52.168;9.866;2023-07-08T07:47:44;100971.00;;;23.97;62.57
13934;BME280;7039;52.168;9.866;2023-07-08T07:50:10;100968.03;;;24.00;62.89
13934;BME280;7039;52.168;9.866;2023-07-08T07:52:37;100983.28;;;24.26;62.39
13934;BME280;7039;52.168;9.866;2023-07-08T07:55:04;100969.88;;;24.62;61.57
13934;BME280;7039;52.168;9.866;2023-07-08T07:57:30;100968.50;;;24.75;59.86
13934;BME280;7039;52.168;9.866;2023-07-08T07:59:57;100969.69;;;24.81;61.08
13934;BME280;7039;52.168;9.866;2023-07-08T08:02:23;100972.63;;;24.96;58.48
13934;BME280;7039;52.168;9.866;2023-07-08T08:04:51;100976.69;;;25.08;58.65
13934;BME280;7039;52.168;9.866;2023-07-08T08:07:18;100965.38;;;25.14;57.79
13934;BME280;7039;52.168;9.866;2023-07-08T08:09:44;100967.13;;;25.32;57.67
13934;BME280;7039;52.168;9.866;2023-07-08T08:12:11;100967.41;;;25.63;56.88
13934;BME280;7039;52.168;9.866;2023-07-08T08:14:38;100970.16;;;25.88;56.41
13934;BME280;7039;52.168;9.866;2023-07-08T08:17:05;100965.19;;;26.01;56.80
13934;BME280;7039;52.168;9.866;2023-07-08T08:19:32;100972.03;;;26.20;56.30
13934;BME280;7039;52.168;9.866;2023-07-08T08:22:00;100969.88;;;26.23;57.40
13934;BME280;7039;52.168;9.866;2023-07-08T08:24:26;100983.75;;;26.43;57.22
13934;BME280;7039;52.168;9.866;2023-07-08T08:26:53;100981.41;;;26.24;54.62
13934;BME280;7039;52.168;9.866;2023-07-08T08:29:19;100977.06;;;26.39;56.05
13934;BME280;7039;52.168;9.866;2023-07-08T08:31:45;100976.69;;;26.34;56.45
13934;BME280;7039;52.168;9.866;2023-07-08T08:34:12;100980.25;;;26.59;57.02
13934;BME280;7039;52.168;9.866;2023-07-08T08:36:38;100966.22;;;26.57;57.19
13934;BME280;7039;52.168;9.866;2023-07-08T08:39:06;100974.88;;;26.51;56.65
13934;BME280;7039;52.168;9.866;2023-07-08T08:41:34;100972.34;;;26.50;57.41
13934;BME280;7039;52.168;9.866;2023-07-08T08:44:02;100971.38;;;26.51;57.04
13934;BME280;7039;52.168;9.866;2023-07-08T08:46:34;100977.34;;;26.85;56.49
13934;BME280;7039;52.168;9.866;2023-07-08T08:49:11;100977.78;;;27.05;56.18
13934;BME280;7039;52.168;9.866;2023-07-08T08:51:40;100976.91;;;27.13;56.68
13934;BME280;7039;52.168;9.866;2023-07-08T08:54:08;100975.28;;;27.04;56.39
13934;BME280;7039;52.168;9.866;2023-07-08T08:56:39;100971.56;;;27.13;57.50
13934;BME280;7039;52.168;9.866;2023-07-08T08:59:17;100970.09;;;27.02;56.57
13934;BME280;7039;52.168;9.866;2023-07-08T09:01:49;100968.94;;;27.05;56.96
13934;BME280;7039;52.168;9.866;2023-07-08T09:04:20;100969.75;;;27.05;56.47
13934;BME280;7039;52.168;9.866;2023-07-08T09:06:50;100962.69;;;27.13;57.21
13934;BME280;7039;52.168;9.866;2023-07-08T09:09:24;100972.53;;;27.28;56.43
13934;BME280;7039;52.168;9.866;2023-07-08T09:11:57;100962.44;;;27.39;56.79
13934;BME280;7039;52.168;9.866;2023-07-08T09:14:28;100975.56;;;27.57;55.97
13934;BME280;7039;52.168;9.866;2023-07-08T09:17:00;100962.72;;;27.52;56.35
13934;BME280;7039;52.168;9.866;2023-07-08T09:19:35;100971.72;;;27.90;56.04
13934;BME280;7039;52.168;9.866;2023-07-08T09:22:05;100962.19;;;28.11;56.96
13934;BME280;7039;52.168;9.866;2023-07-08T09:24:42;100965.91;;;28.25;55.36
13934;BME280;7039;52.168;9.866;2023-07-08T09:27:09;100963.25;;;28.48;55.75
13934;BME280;7039;52.168;9.866;2023-07-08T09:29:36;100962.50;;;28.54;55.41
13934;BME280;7039;52.168;9.866;2023-07-08T09:32:14;100958.19;;;28.83;55.13
13934;BME280;7039;52.168;9.866;2023-07-08T09:34:44;100955.41;;;28.76;54.42
13934;BME280;7039;52.168;9.866;2023-07-08T09:37:33;100957.44;;;29.04;53.96
13934;BME280;7039;52.168;9.866;2023-07-08T09:40:04;100958.47;;;29.18;55.10
13934;BME280;7039;52.168;9.866;2023-07-08T09:42:42;100951.81;;;29.13;55.58
13934;BME280;7039;52.168;9.866;2023-07-08T09:45:13;100951.63;;;29.30;54.52
13934;BME280;7039;52.168;9.866;2023-07-08T09:47:39;100950.06;;;29.21;53.98
13934;BME280;7039;52.168;9.866;2023-07-08T09:50:17;100951.13;;;29.41;54.31
13934;BME280;7039;52.168;9.866;2023-07-08T09:52:46;100952.47;;;29.52;54.02
13934;BME280;7039;52.168;9.866;2023-07-08T09:55:14;100952.38;;;29.60;51.91
13934;BME280;7039;52.168;9.866;2023-07-08T09:57:42;100945.53;;;29.58;50.00
13934;BME280;7039;52.168;9.866;2023-07-08T10:00:12;100942.63;;;29.59;49.57
13934;BME280;7039;52.168;9.866;2023-07-08T10:02:43;100941.16;;;29.71;51.07
13934;BME280;7039;52.168;9.866;2023-07-08T10:05:18;100952.53;;;29.95;51.06
13934;BME280;7039;52.168;9.866;2023-07-08T10:07:46;100945.38;;;29.81;51.22
13934;BME280;7039;52.168;9.866;2023-07-08T10:10:16;100946.00;;;29.83;51.62
13934;BME280;7039;52.168;9.866;2023-07-08T10:12:52;100935.03;;;29.63;51.85
13934;BME280;7039;52.168;9.866;2023-07-08T10:15:26;100943.63;;;29.94;51.08
13934;BME280;7039;52.168;9.866;2023-07-08T10:17:55;100945.88;;;30.12;50.00
13934;BME280;7039;52.168;9.866;2023-07-08T10:20:22;100945.72;;;30.42;51.38
13934;BME280;7039;52.168;9.866;2023-07-08T10:23:02;100947.22;;;30.51;51.71
13934;BME280;7039;52.168;9.866;2023-07-08T10:25:37;100943.75;;;30.57;49.36
13934;BME280;7039;52.168;9.866;2023-07-08T10:28:35;100939.06;;;30.38;48.52
13934;BME280;7039;52.168;9.866;2023-07-08T10:31:16;100940.28;;;30.64;48.58
13934;BME280;7039;52.168;9.866;2023-07-08T10:33:57;100942.16;;;30.70;46.51
13934;BME280;7039;52.168;9.866;2023-07-08T10:36:36;100941.91;;;30.93;47.23
13934;BME280;7039;52.168;9.866;2023-07-08T10:42:16;100939.44;;;31.39;46.41
13934;BME280;7039;52.168;9.866;2023-07-08T10:44:56;100940.44;;;31.38;46.54
13934;BME280;7039;52.168;9.866;2023-07-08T10:47:36;100938.03;;;31.50;45.58
13934;BME280;7039;52.168;9.866;2023-07-08T10:50:20;100927.22;;;30.95;43.90
13934;BME280;7039;52.168;9.866;2023-07-08T10:52:57;100932.47;;;31.10;47.42
13934;BME280;7039;52.168;9.866;2023-07-08T10:55:35;100940.56;;;31.65;46.45
13934;BME280;7039;52.168;9.866;2023-07-08T10:58:25;100938.13;;;31.97;44.07
13934;BME280;7039;52.168;9.866;2023-07-08T11:01:00;100930.03;;;31.97;44.06
13934;BME280;7039;52.168;9.866;2023-07-08T11:06:43;100941.47;;;32.52;44.13
13934;BME280;7039;52.168;9.866;2023-07-08T11:09:14;100916.91;;;32.67;42.91
13934;BME280;7039;52.168;9.866;2023-07-08T11:11:45;100925.63;;;32.69;40.64
13934;BME280;7039;52.168;9.866;2023-07-08T11:14:22;100921.72;;;32.32;40.32
13934;BME280;7039;52.168;9.866;2023-07-08T11:16:55;100924.75;;;32.89;43.05
13934;BME280;7039;52.168;9.866;2023-07-08T11:19:27;100918.19;;;33.23;41.98
13934;BME280;7039;52.168;9.866;2023-07-08T11:21:59;100907.06;;;33.38;39.20
13934;BME280;7039;52.168;9.866;2023-07-08T11:24:34;100912.00;;;33.47;37.44
13934;BME280;7039;52.168;9.866;2023-07-08T11:27:08;100896.66;;;33.41;36.31
13934;BME280;7039;52.168;9.866;2023-07-08T11:29:44;100902.19;;;33.53;38.74
13934;BME280;7039;52.168;9.866;2023-07-08T11:32:14;100904.56;;;33.75;39.05
13934;BME280;7039;52.168;9.866;2023-07-08T11:34:44;100899.25;;;33.93;35.02
13934;BME280;7039;52.168;9.866;2023-07-08T11:37:13;100903.81;;;34.18;37.01
13934;BME280;7039;52.168;9.866;2023-07-08T11:39:42;100895.44;;;34.26;34.72
13934;BME280;7039;52.168;9.866;2023-07-08T11:42:17;100896.25;;;34.45;37.05
13934;BME280;7039;52.168;9.866;2023-07-08T11:44:49;100898.84;;;34.77;36.10
13934;BME280;7039;52.168;9.866;2023-07-08T11:47:24;100891.78;;;34.94;36.24
13934;BME280;7039;52.168;9.866;2023-07-08T11:49:52;100890.19;;;35.05;36.33
13934;BME280;7039;52.168;9.866;2023-07-08T11:52:21;100883.63;;;35.12;37.24
13934;BME280;7039;52.168;9.866;2023-07-08T11:54:54;100881.00;;;34.87;34.10
13934;BME280;7039;52.168;9.866;2023-07-08T11:57:28;100889.09;;;35.24;34.59
13934;BME280;7039;52.168;9.866;2023-07-08T12:00:18;100878.16;;;35.31;33.86
13934;BME280;7039;52.168;9.866;2023-07-08T12:02:51;100879.00;;;35.62;34.69
13934;BME280;7039;52.168;9.866;2023-07-08T12:05:29;100882.53;;;35.62;35.23
13934;BME280;7039;52.168;9.866;2023-07-08T12:07:56;100877.84;;;36.05;33.82
13934;BME280;7039;52.168;9.866;2023-07-08T12:10:27;100878.22;;;36.20;35.44
13934;BME280;7039;52.168;9.866;2023-07-08T12:12:54;100881.00;;;35.66;31.41
13934;BME280;7039;52.168;9.866;2023-07-08T12:15:24;100863.41;;;34.41;33.70
13934;BME280;7039;52.168;9.866;2023-07-08T12:17:53;100869.19;;;35.00;35.35
13934;BME280;7039;52.168;9.866;2023-07-08T12:20:23;100877.00;;;35.39;33.35
13934;BME280;7039;52.168;9.866;2023-07-08T12:22:50;100875.66;;;35.60;35.66
13934;BME280;7039;52.168;9.866;2023-07-08T12:25:18;100870.63;;;35.75;33.59
13934;BME280;7039;52.168;9.866;2023-07-08T12:27:46;100868.31;;;36.14;35.09
13934;BME280;7039;52.168;9.866;2023-07-08T12:30:14;100865.53;;;36.49;35.98
13934;BME280;7039;52.168;9.866;2023-07-08T12:32:43;100865.94;;;36.41;31.51
13934;BME280;7039;52.168;9.866;2023-07-08T12:35:19;100862.25;;;36.59;33.37
13934;BME280;7039;52.168;9.866;2023-07-08T12:37:47;100866.13;;;36.51;32.08
13934;BME280;7039;52.168;9.866;2023-07-08T12:40:14;100859.94;;;36.79;32.42
13934;BME280;7039;52.168;9.866;2023-07-08T12:42:41;100857.94;;;37.04;32.72
13934;BME280;7039;52.168;9.866;2023-07-08T12:45:13;100851.00;;;36.67;29.39
13934;BME280;7039;52.168;9.866;2023-07-08T12:47:42;100850.56;;;36.87;33.28
13934;BME280;7039;52.168;9.866;2023-07-08T12:50:09;100855.00;;;37.34;31.97
13934;BME280;7039;52.168;9.866;2023-07-08T12:52:36;100858.09;;;37.71;31.25
13934;BME280;7039;52.168;9.866;2023-07-08T12:55:03;100852.97;;;37.58;29.28
13934;BME280;7039;52.168;9.866;2023-07-08T12:57:30;100846.72;;;37.57;30.05
13934;BME280;7039;52.168;9.866;2023-07-08T12:59:57;100850.88;;;38.38;27.74
13934;BME280;7039;52.168;9.866;2023-07-08T13:02:25;100862.13;;;38.85;31.24
13934;BME280;7039;52.168;9.866;2023-07-08T13:04:58;100856.13;;;38.61;27.64
13934;BME280;7039;52.168;9.866;2023-07-08T13:07:29;100845.53;;;39.14;30.63
13934;BME280;7039;52.168;9.866;2023-07-08T13:09:58;100848.25;;;40.11;29.35
13934;BME280;7039;52.168;9.866;2023-07-08T13:12:25;100851.44;;;40.45;28.57
13934;BME280;7039;52.168;9.866;2023-07-08T13:14:53;100842.88;;;41.10;28.79
13934;BME280;7039;52.168;9.866;2023-07-08T13:17:21;100837.63;;;40.73;26.77
13934;BME280;7039;52.168;9.866;2023-07-08T13:19:48;100840.91;;;40.75;28.68
13934;BME280;7039;52.168;9.866;2023-07-08T13:22:18;100834.53;;;40.59;25.30
13934;BME280;7039;52.168;9.866;2023-07-08T13:24:46;100834.94;;;41.85;29.19
13934;BME280;7039;52.168;9.866;2023-07-08T13:27:20;100833.28;;;41.89;25.69
13934;BME280;7039;52.168;9.866;2023-07-08T13:29:47;100829.34;;;42.91;27.41
13934;BME280;7039;52.168;9.866;2023-07-08T13:32:14;100832.63;;;42.93;26.53
13934;BME280;7039;52.168;9.866;2023-07-08T13:34:41;100844.91;;;43.99;25.46
13934;BME280;7039;52.168;9.866;2023-07-08T13:37:10;100832.97;;;44.76;25.27
13934;BME280;7039;52.168;9.866;2023-07-08T13:39:43;100830.38;;;45.22;23.42
13934;BME280;7039;52.168;9.866;2023-07-08T13:42:11;100833.97;;;45.37;24.78
13934;BME280;7039;52.168;9.866;2023-07-08T13:44:42;100826.88;;;43.88;25.94
13934;BME280;7039;52.168;9.866;2023-07-08T13:47:20;100818.63;;;43.64;25.22
13934;BME280;7039;52.168;9.866;2023-07-08T13:49:48;100828.13;;;43.47;26.94
13934;BME280;7039;52.168;9.866;2023-07-08T13:52:21;100832.97;;;44.57;24.74
13934;BME280;7039;52.168;9.866;2023-07-08T13:54:52;100834.97;;;44.70;23.75
13934;BME280;7039;52.168;9.866;2023-07-08T13:57:21;100819.75;;;43.28;23.65
13934;BME280;7039;52.168;9.866;2023-07-08T13:59:48;100821.13;;;42.26;25.83
13934;BME280;7039;52.168;9.866;2023-07-08T14:02:18;100822.66;;;42.58;25.79
13934;BME280;7039;52.168;9.866;2023-07-08T14:04:49;100811.88;;;42.72;23.54
13934;BME280;7039;52.168;9.866;2023-07-08T14:07:18;100820.44;;;42.65;24.33
13934;BME280;7039;52.168;9.866;2023-07-08T14:09:45;100822.28;;;44.31;26.20
13934;BME280;7039;52.168;9.866;2023-07-08T14:12:13;100818.81;;;45.01;23.04
13934;BME280;7039;52.168;9.866;2023-07-08T14:14:40;100820.78;;;44.82;24.01
13934;BME280;7039;52.168;9.866;2023-07-08T14:17:10;100828.75;;;45.68;23.88
13934;BME280;7039;52.168;9.866;2023-07-08T14:19:37;100825.41;;;46.40;23.14
13934;BME280;7039;52.168;9.866;2023-07-08T14:22:25;100819.47;;;46.83;25.60
13934;BME280;7039;52.168;9.866;2023-07-08T14:24:51;100811.94;;;46.98;23.58
13934;BME280;7039;52.168;9.866;2023-07-08T14:27:19;100814.91;;;45.40;25.05
13934;BME280;7039;52.168;9.866;2023-07-08T14:29:47;100815.09;;;45.91;24.61
13934;BME280;7039;52.168;9.866;2023-07-08T14:32:18;100823.09;;;46.06;24.68